KSCR/SCR METAR and TAF weather

Enter ICAO airport designator
Station Type Date Time Source
KSCR METAR 2019/05/26 23:40 UTC NOAA

KSCR 262340Z AUTO 00000KT 10SM CLR 30/20 A3001 RMK AO2 T02970197


Station Type Date Time Source
KSCR Decoded METAR 2019/05/26 23:40 UTC NOAA

Station name not available
May 26, 2019 - 07:40 PM EDT / 2019.05.26 2340 UTC
Wind: Calm:0
Visibility: 10 mile(s):0
Sky conditions: clear
Temperature: 85.5 F (29.7 C)
Dew Point: 67.5 F (19.7 C)
Relative Humidity: 55%
Pressure (altimeter): 30.01 in. Hg (1016 hPa)
ob: KSCR 262340Z AUTO 00000KT 10SM CLR 30/20 A3001 RMK AO2 T02970197
cycle: 23

Station Type Date Time Source
KSCR TAF UTC NOAA

Error!

Example: see airport list